This is the latest recevied weather packets stored in our database for station/object TG9ADI-20. If no packets are shown the sender has not sent any weather packets the latest 10 day(s).
| Time | Temp. | Humidity | Pressure | Rain* | Wind** | Luminosity | Snow |
|---|---|---|---|---|---|---|---|
| 1778226938 | 18.89° C | 92% | 1013 hPa | 0 mm | - | - | - |
| 1778226337 | 19.44° C | 93% | 1014 hPa | 0 mm | - | - | - |
| 1778225737 | 19.44° C | 93% | 1014 hPa | 0 mm | - | - | - |
| 1778225136 | 18.89° C | 93% | 1014 hPa | 0 mm | - | - | - |
| 1778224535 | 18.89° C | 94% | 1014 hPa | 0 mm | - | - | - |
| 1778223935 | 18.89° C | 96% | 1014 hPa | 0 mm | - | - | - |
| 1778223334 | 19.44° C | 97% | 1014 hPa | 0 mm | - | - | - |
| 1778222734 | 18.89° C | 96% | 1014 hPa | 0 mm | - | - | - |
| 1778222133 | 18.89° C | 96% | 1014 hPa | 0 mm | - | - | - |
| 1778221532 | 19.44° C | 95% | 1014 hPa | 0 mm | - | - | - |
| 1778220932 | 17.78° C | 96% | 1014 hPa | 0 mm | - | - | - |
| 1778220331 | 18.89° C | 10% | - | 0 mm | - | - | - |
| 1778219731 | 19.44° C | 92% | 1015 hPa | 0 mm | - | - | - |
| 1778219130 | 19.44° C | 92% | 1015 hPa | 0 mm | - | - | - |
| 1778218529 | 19.44° C | 92% | 1015 hPa | 0 mm | - | - | - |
| 1778217929 | 20° C | 92% | 1015 hPa | 0 mm | - | - | - |
| 1778217328 | 20° C | 92% | 1015 hPa | 0 mm | - | - | - |
| 1778216728 | 20.56° C | 88% | 1015 hPa | 0 mm | - | - | - |
| 1778216127 | 17.22° C | 98% | 1015 hPa | 0 mm | - | - | - |
| 1778215527 | 17.78° C | 98% | 1015 hPa | 0 mm | - | - | - |
| 1778214926 | 18.33° C | 97% | 1015 hPa | 0 mm | - | - | - |
| 1778214325 | 18.33° C | 97% | 1015 hPa | 0 mm | - | - | - |
| 1778213725 | 20° C | 93% | 1015 hPa | 0 mm | - | - | - |
| 1778213124 | 17.78° C | 10% | - | 0 mm | - | - | - |
| 1778212524 | 17.78° C | 10% | - | 0 mm | - | - | - |
* Rain latest hour (hover to see other rain measurements)
** Current wind speed in m/s (hover to see current wind gust speed)